Time;durP1;ratioP1;P1;durP2;ratioP2;P2;SDS_P1;SDS_P2;PMS_P1;PMS_P2;Temp;Humidity;BMP_temperature;BMP_pressure;BME280_temperature;BME280_humidity;BME280_pressure;Samples;Min_cycle;Max_cycle;Signal;HPM_P1;HPM_P2
2021/09/28 00:00:44;;;;;;;3.90;1.00;;;10.00;99.90;;;;;;4951604;28;20045;-92
2021/09/28 00:03:10;;;;;;;7.53;1.00;;;10.10;99.90;;;;;;4946618;28;20019;-93
2021/09/28 00:05:35;;;;;;;8.25;1.10;;;10.10;99.90;;;;;;4946759;28;20118;-92
2021/09/28 00:08:01;;;;;;;5.18;1.20;;;10.00;99.90;;;;;;4949644;28;20038;-93
2021/09/28 00:10:27;;;;;;;9.63;1.38;;;10.00;99.90;;;;;;4949845;28;20019;-93
2021/09/28 00:12:53;;;;;;;5.50;1.00;;;10.10;99.90;;;;;;4951123;28;20476;-92
2021/09/28 00:15:19;;;;;;;4.20;0.90;;;10.00;99.90;;;;;;4965806;28;20039;-92
2021/09/28 00:17:45;;;;;;;8.52;1.10;;;10.00;99.90;;;;;;4946166;28;20029;-92
2021/09/28 00:20:12;;;;;;;7.60;1.15;;;10.00;99.90;;;;;;4947145;28;20019;-91
2021/09/28 00:22:38;;;;;;;11.48;1.52;;;9.90;99.90;;;;;;4946840;28;20202;-93
2021/09/28 00:25:06;;;;;;;9.40;1.65;;;9.90;99.90;;;;;;4946497;28;20046;-92
2021/09/28 00:27:32;;;;;;;8.43;1.17;;;9.90;99.90;;;;;;4947834;28;20031;-92
2021/09/28 00:29:59;;;;;;;8.55;1.13;;;9.90;99.90;;;;;;4952459;28;20028;-94
2021/09/28 00:32:25;;;;;;;40.65;5.40;;;9.90;99.90;;;;;;4944286;28;20472;-93
2021/09/28 00:34:51;;;;;;;8.70;1.50;;;9.90;99.90;;;;;;4951762;28;20027;-93
2021/09/28 00:37:17;;;;;;;10.68;2.42;;;9.90;99.90;;;;;;4951684;29;20071;-94
2021/09/28 00:39:43;;;;;;;8.50;1.20;;;9.80;99.90;;;;;;4955820;28;20058;-93
2021/09/28 00:42:09;;;;;;;12.65;1.85;;;9.80;99.90;;;;;;4952714;28;20069;-92
2021/09/28 00:44:46;;;;;;;4.55;1.08;;;9.70;99.90;;;;;;4952343;28;20023;-92
2021/09/28 00:47:14;;;;;;;9.30;1.20;;;9.70;99.90;;;;;;4950983;28;20040;-92
2021/09/28 00:49:44;;;;;;;5.97;1.10;;;9.70;99.90;;;;;;4951170;28;20028;-93
2021/09/28 00:52:12;;;;;;;7.88;2.00;;;9.70;99.90;;;;;;4950899;28;20091;-93
2021/09/28 00:54:39;;;;;;;9.05;1.95;;;9.70;99.90;;;;;;4951248;28;20031;-93
2021/09/28 00:57:09;;;;;;;5.45;1.02;;;9.70;99.90;;;;;;4950458;28;20058;-93
2021/09/28 00:59:36;;;;;;;5.57;1.98;;;9.70;99.90;;;;;;4952286;28;20469;-93
2021/09/28 01:02:08;;;;;;;7.70;1.50;;;9.70;99.90;;;;;;4956326;28;20172;-93
2021/09/28 01:04:35;;;;;;;3.70;1.13;;;9.60;99.90;;;;;;4953625;28;20392;-93
2021/09/28 01:07:03;;;;;;;8.30;1.35;;;9.60;99.90;;;;;;4948717;28;20034;-93
2021/09/28 01:09:30;;;;;;;6.55;1.40;;;9.50;99.90;;;;;;4953053;28;20019;-92
2021/09/28 01:11:55;;;;;;;4.28;1.15;;;9.60;99.90;;;;;;4954602;28;20062;-91
2021/09/28 01:14:21;;;;;;;14.68;1.88;;;9.60;99.90;;;;;;4951127;29;20060;-92
2021/09/28 01:16:47;;;;;;;6.57;0.95;;;9.60;99.90;;;;;;4954774;28;20035;-93
2021/09/28 01:19:13;;;;;;;7.90;1.60;;;9.60;99.90;;;;;;4956774;28;20035;-93
2021/09/28 01:21:38;;;;;;;10.82;1.50;;;9.60;99.90;;;;;;4958000;28;20026;-93
2021/09/28 01:24:06;;;;;;;5.45;1.50;;;9.60;99.90;;;;;;4954466;28;20542;-93
2021/09/28 01:26:32;;;;;;;6.63;1.30;;;9.50;99.90;;;;;;4952207;28;20055;-93
2021/09/28 01:29:00;;;;;;;8.80;1.40;;;9.60;99.90;;;;;;4950910;28;20022;-92
2021/09/28 01:31:25;;;;;;;7.88;1.60;;;9.50;99.90;;;;;;4955153;28;20110;-93
2021/09/28 01:33:52;;;;;;;10.15;1.75;;;9.50;99.90;;;;;;4949579;28;20073;-93
2021/09/28 01:36:18;;;;;;;10.02;1.67;;;9.50;99.90;;;;;;4951471;28;20147;-91
2021/09/28 01:38:43;;;;;;;8.90;1.33;;;9.50;99.90;;;;;;4949783;28;20047;-92
2021/09/28 01:41:11;;;;;;;5.00;1.20;;;9.50;99.90;;;;;;4949578;28;20019;-92
2021/09/28 01:43:37;;;;;;;7.40;1.27;;;9.50;99.90;;;;;;4951863;28;20015;-92
2021/09/28 01:46:05;;;;;;;9.52;1.88;;;9.50;99.90;;;;;;4951440;28;20037;-93
2021/09/28 01:48:42;;;;;;;8.35;1.27;;;9.50;99.90;;;;;;4952206;28;20019;-94
2021/09/28 01:51:08;;;;;;;15.95;4.57;;;9.50;99.90;;;;;;4949982;28;20028;-92
2021/09/28 01:53:35;;;;;;;7.75;1.60;;;9.50;99.90;;;;;;4953024;28;20489;-93
2021/09/28 01:56:00;;;;;;;4.65;1.45;;;9.50;99.90;;;;;;4952710;28;20078;-92
2021/09/28 01:58:26;;;;;;;8.48;1.70;;;9.50;99.90;;;;;;4948661;28;20027;-93
2021/09/28 02:00:52;;;;;;;9.07;1.77;;;9.50;99.90;;;;;;4951743;28;20058;-93
2021/09/28 02:03:17;;;;;;;7.70;1.50;;;9.50;99.90;;;;;;4951183;28;20030;-91
2021/09/28 02:08:09;;;;;;;5.82;1.20;;;9.40;99.90;;;;;;4916261;23;20052;-90
2021/09/28 02:10:35;;;;;;;5.07;1.25;;;9.40;99.90;;;;;;4953616;28;20413;-91
2021/09/28 02:13:01;;;;;;;11.48;1.80;;;9.40;99.90;;;;;;4957783;28;20031;-92
2021/09/28 02:15:27;;;;;;;8.18;1.42;;;9.40;99.90;;;;;;4941346;28;20016;-92
2021/09/28 02:17:53;;;;;;;5.63;1.20;;;9.40;99.90;;;;;;4950367;28;20031;-93
2021/09/28 02:20:18;;;;;;;7.93;1.50;;;9.40;99.90;;;;;;4949161;28;20046;-92
2021/09/28 02:22:44;;;;;;;8.15;1.75;;;9.40;99.90;;;;;;4951061;28;20030;-92
2021/09/28 02:25:12;;;;;;;16.40;1.75;;;9.40;99.90;;;;;;4952213;28;20089;-92
2021/09/28 02:27:39;;;;;;;12.45;2.17;;;9.40;99.90;;;;;;4943633;28;20207;-92
2021/09/28 02:30:05;;;;;;;4.93;1.23;;;9.40;99.90;;;;;;4929448;29;20548;-92
2021/09/28 02:32:31;;;;;;;6.07;1.48;;;9.40;99.90;;;;;;4930282;29;20031;-92
2021/09/28 02:34:57;;;;;;;9.90;1.30;;;9.40;99.90;;;;;;4930960;29;20031;-92
2021/09/28 02:37:22;;;;;;;13.88;1.50;;;9.30;99.90;;;;;;4929194;29;20490;-92
2021/09/28 02:39:48;;;;;;;11.35;1.65;;;9.40;99.90;;;;;;4931979;29;20059;-93
2021/09/28 02:42:14;;;;;;;4.72;1.10;;;9.30;99.90;;;;;;4929701;29;20027;-93
2021/09/28 02:44:40;;;;;;;7.75;1.23;;;9.30;99.90;;;;;;4928660;29;20024;-92
2021/09/28 02:47:06;;;;;;;9.57;1.55;;;9.30;99.90;;;;;;4929498;29;20024;-92
2021/09/28 02:49:31;;;;;;;12.85;1.52;;;9.30;99.90;;;;;;4929842;29;20031;-93
2021/09/28 02:51:57;;;;;;;9.02;1.27;;;9.30;99.90;;;;;;4933590;29;20440;-93
2021/09/28 02:54:23;;;;;;;8.80;2.20;;;9.30;99.90;;;;;;4926490;29;20110;-92
2021/09/28 02:56:49;;;;;;;9.95;1.50;;;9.30;99.90;;;;;;4929771;29;20082;-93
2021/09/28 02:59:15;;;;;;;11.32;2.75;;;9.20;99.90;;;;;;4930385;29;20031;-94
2021/09/28 03:01:40;;;;;;;10.90;1.90;;;9.20;99.90;;;;;;4928590;29;20019;-93
2021/09/28 03:04:06;;;;;;;7.50;1.83;;;9.20;99.90;;;;;;4930623;29;20070;-93
2021/09/28 03:06:32;;;;;;;8.43;2.30;;;9.20;99.90;;;;;;4931331;29;20540;-93
2021/09/28 03:08:58;;;;;;;10.13;2.05;;;9.20;99.90;;;;;;4930036;29;20071;-94
2021/09/28 03:11:26;;;;;;;11.50;2.22;;;9.20;99.90;;;;;;4931226;29;20078;-93
2021/09/28 03:13:56;;;;;;;10.88;2.17;;;9.20;99.90;;;;;;4930053;29;20023;-93
2021/09/28 03:16:22;;;;;;;10.88;2.95;;;9.20;99.90;;;;;;4928362;29;20038;-93
2021/09/28 03:18:48;;;;;;;12.48;2.63;;;9.20;99.90;;;;;;4925266;29;20178;-94
2021/09/28 03:21:14;;;;;;;8.70;2.17;;;9.20;99.90;;;;;;4928910;29;20027;-93
2021/09/28 03:23:40;;;;;;;8.70;2.17;;;9.20;99.90;;;;;;4934306;29;20488;-94
2021/09/28 03:26:06;;;;;;;9.18;2.65;;;9.30;99.90;;;;;;4929604;29;20078;-93
2021/09/28 03:28:32;;;;;;;7.93;2.00;;;9.30;99.90;;;;;;4949852;29;20095;-93
2021/09/28 03:30:59;;;;;;;7.68;2.10;;;9.30;99.90;;;;;;4949725;29;20098;-93
2021/09/28 03:33:26;;;;;;;9.60;1.83;;;9.30;99.90;;;;;;4932093;29;20031;-93
2021/09/28 03:35:52;;;;;;;9.70;2.92;;;9.30;99.90;;;;;;4928112;29;20097;-93
2021/09/28 03:38:18;;;;;;;8.98;2.60;;;9.30;99.90;;;;;;4930188;29;20675;-93
2021/09/28 03:40:43;;;;;;;11.50;2.60;;;9.30;99.90;;;;;;4928022;29;20486;-93
2021/09/28 03:43:09;;;;;;;14.32;2.58;;;9.30;99.90;;;;;;4930815;29;20019;-93
2021/09/28 03:45:36;;;;;;;6.63;2.13;;;9.30;99.90;;;;;;4928173;29;20083;-93
2021/09/28 03:48:02;;;;;;;11.80;3.40;;;9.30;99.90;;;;;;4927364;29;20027;-93
2021/09/28 03:50:28;;;;;;;15.10;2.33;;;9.30;99.90;;;;;;4929304;29;20601;-93
2021/09/28 03:52:54;;;;;;;11.02;2.50;;;9.30;99.90;;;;;;4929004;29;20031;-92
2021/09/28 03:55:23;;;;;;;11.80;2.50;;;9.30;99.90;;;;;;4927137;29;20027;-93
2021/09/28 03:57:50;;;;;;;12.85;2.60;;;9.40;99.90;;;;;;4927470;29;20019;-92
2021/09/28 04:00:20;;;;;;;7.35;1.90;;;9.30;99.90;;;;;;4929018;29;20024;-92
2021/09/28 04:02:46;;;;;;;10.02;2.10;;;9.30;99.90;;;;;;4925592;29;20023;-93
2021/09/28 04:05:12;;;;;;;12.25;3.42;;;9.30;99.90;;;;;;4927862;29;20043;-93
2021/09/28 04:07:38;;;;;;;9.55;2.40;;;9.30;99.90;;;;;;4926434;29;20043;-92
2021/09/28 04:10:09;;;;;;;10.43;2.10;;;9.30;99.90;;;;;;4926557;29;20218;-92
2021/09/28 04:12:36;;;;;;;10.15;2.20;;;9.40;99.90;;;;;;4929350;29;20086;-93
2021/09/28 04:15:03;;;;;;;18.58;3.47;;;9.40;99.90;;;;;;4928681;29;20563;-93
2021/09/28 04:17:29;;;;;;;15.27;3.22;;;9.40;99.90;;;;;;4911507;29;20032;-92
2021/09/28 04:19:55;;;;;;;6.55;2.03;;;9.40;99.90;;;;;;4929594;29;20528;-93
2021/09/28 04:22:22;;;;;;;8.35;1.83;;;9.40;99.90;;;;;;4929540;29;20019;-92
2021/09/28 04:24:49;;;;;;;6.75;2.15;;;9.40;99.90;;;;;;4929878;29;20051;-92
2021/09/28 04:27:18;;;;;;;6.82;2.10;;;9.40;99.90;;;;;;4927229;29;20035;-92
2021/09/28 04:29:44;;;;;;;16.33;3.30;;;9.40;99.90;;;;;;4926818;29;20027;-93
2021/09/28 04:32:10;;;;;;;7.20;1.75;;;9.40;99.90;;;;;;4928445;29;20026;-93
2021/09/28 04:34:36;;;;;;;11.60;2.67;;;9.40;99.90;;;;;;4928069;29;20477;-92
2021/09/28 04:37:03;;;;;;;7.60;2.53;;;9.40;99.90;;;;;;4929038;29;20027;-93
2021/09/28 04:39:28;;;;;;;10.90;2.75;;;9.40;99.90;;;;;;4928049;29;20024;-92
2021/09/28 04:41:54;;;;;;;13.98;2.80;;;9.40;99.90;;;;;;4930301;29;20111;-93
2021/09/28 04:44:20;;;;;;;11.38;3.05;;;9.40;99.90;;;;;;4929584;29;20059;-93
2021/09/28 04:46:46;;;;;;;8.93;2.80;;;9.40;99.90;;;;;;4924599;29;20051;-93
2021/09/28 04:49:12;;;;;;;14.23;3.47;;;9.40;99.90;;;;;;4926946;29;20031;-92
2021/09/28 04:51:38;;;;;;;11.88;3.30;;;9.40;99.90;;;;;;4928871;29;20029;-93
2021/09/28 04:54:04;;;;;;;11.90;4.22;;;9.40;99.90;;;;;;4929546;29;20023;-93
2021/09/28 04:56:30;;;;;;;10.50;3.45;;;9.40;99.90;;;;;;4930045;29;20020;-93
2021/09/28 04:58:55;;;;;;;12.93;4.22;;;9.40;99.90;;;;;;4923357;29;20098;-93
2021/09/28 05:01:21;;;;;;;11.95;4.03;;;9.30;99.90;;;;;;4938766;29;20036;-93
2021/09/28 05:03:47;;;;;;;12.60;4.00;;;9.30;99.90;;;;;;4932397;29;20031;-93
2021/09/28 05:06:13;;;;;;;10.75;3.72;;;9.30;99.90;;;;;;4927589;29;20509;-94
2021/09/28 05:08:39;;;;;;;15.52;4.07;;;9.30;99.90;;;;;;4927482;29;20531;-93
2021/09/28 05:11:08;;;;;;;10.63;3.88;;;9.30;99.90;;;;;;4922488;29;20051;-93
2021/09/28 05:13:34;;;;;;;11.43;4.63;;;9.30;99.90;;;;;;4927544;29;20027;-93
2021/09/28 05:16:00;;;;;;;16.95;4.57;;;9.30;99.90;;;;;;4938943;29;20032;-93
2021/09/28 05:18:25;;;;;;;10.38;4.50;;;9.30;99.90;;;;;;4948301;28;20016;-94
2021/09/28 05:20:51;;;;;;;14.50;4.80;;;9.40;99.90;;;;;;4941654;29;20042;-94
2021/09/28 05:23:17;;;;;;;14.20;4.57;;;9.30;99.90;;;;;;4933036;29;20016;-93
2021/09/28 05:25:42;;;;;;;14.50;4.60;;;9.30;99.90;;;;;;4930418;29;20127;-93
2021/09/28 05:28:08;;;;;;;15.15;5.93;;;9.40;99.90;;;;;;4931713;29;20469;-94
2021/09/28 05:30:34;;;;;;;11.80;5.03;;;9.30;99.90;;;;;;4930039;29;20073;-93
2021/09/28 05:32:59;;;;;;;21.73;5.40;;;9.30;99.90;;;;;;4929963;29;20028;-93
2021/09/28 05:35:25;;;;;;;14.43;4.75;;;9.30;99.90;;;;;;4930038;29;20027;-93
2021/09/28 05:37:52;;;;;;;9.45;4.20;;;9.30;99.90;;;;;;4931030;29;20115;-93
2021/09/28 05:40:19;;;;;;;13.02;5.10;;;9.30;99.90;;;;;;4933032;29;20504;-93
2021/09/28 05:42:45;;;;;;;15.68;5.65;;;9.30;99.90;;;;;;4929961;29;20039;-94
2021/09/28 05:45:11;;;;;;;19.77;6.13;;;9.30;99.90;;;;;;4931427;29;20484;-94
2021/09/28 05:47:37;;;;;;;12.75;5.32;;;9.30;99.90;;;;;;4932194;29;20061;-94
2021/09/28 05:50:04;;;;;;;13.57;4.70;;;9.40;99.90;;;;;;4932071;29;20106;-93
2021/09/28 05:52:30;;;;;;;14.00;4.82;;;9.40;99.90;;;;;;4930546;29;20119;-94
2021/09/28 05:54:56;;;;;;;17.88;5.35;;;9.40;99.90;;;;;;4927043;29;20120;-93
2021/09/28 05:57:23;;;;;;;14.48;6.00;;;9.40;99.90;;;;;;4934089;29;20059;-93
2021/09/28 05:59:49;;;;;;;11.40;6.25;;;9.50;99.90;;;;;;4930010;29;20020;-93
2021/09/28 06:02:15;;;;;;;13.75;4.70;;;9.50;99.90;;;;;;4935145;29;20107;-94
2021/09/28 06:04:41;;;;;;;13.70;4.18;;;9.50;99.90;;;;;;4929934;29;20019;-94
2021/09/28 06:07:08;;;;;;;15.82;4.57;;;9.60;99.90;;;;;;4930409;29;20057;-92
2021/09/28 06:09:38;;;;;;;11.35;3.95;;;9.60;99.90;;;;;;4928285;29;20051;-93
2021/09/28 06:12:05;;;;;;;11.82;3.97;;;9.60;99.90;;;;;;4926933;29;20027;-93
2021/09/28 06:14:32;;;;;;;14.10;3.90;;;9.60;99.90;;;;;;4932273;29;20031;-93
2021/09/28 06:16:59;;;;;;;24.17;4.25;;;9.70;99.90;;;;;;4926805;29;20027;-94
2021/09/28 06:19:25;;;;;;;14.07;4.00;;;9.70;99.90;;;;;;4930351;29;20485;-95
2021/09/28 06:21:52;;;;;;;11.15;3.90;;;9.80;99.90;;;;;;4935955;29;20102;-94
2021/09/28 06:24:18;;;;;;;9.50;3.13;;;9.70;99.90;;;;;;4935084;29;20027;-94
2021/09/28 06:26:44;;;;;;;9.95;3.58;;;9.80;99.90;;;;;;4934576;29;20051;-93
2021/09/28 06:29:11;;;;;;;8.50;2.88;;;9.80;99.90;;;;;;4935010;29;20030;-91
2021/09/28 06:31:37;;;;;;;16.23;3.25;;;9.80;99.90;;;;;;4933861;29;20019;-94
2021/09/28 06:34:03;;;;;;;12.55;2.60;;;9.80;99.90;;;;;;4934605;29;20043;-93
2021/09/28 06:36:29;;;;;;;13.02;3.38;;;9.80;99.90;;;;;;4935453;29;20054;-94
2021/09/28 06:38:55;;;;;;;11.80;3.50;;;9.80;99.90;;;;;;4936443;29;20031;-94
2021/09/28 06:41:20;;;;;;;13.82;3.25;;;9.80;99.90;;;;;;4935506;29;20499;-94
2021/09/28 06:43:48;;;;;;;10.93;3.55;;;9.80;99.90;;;;;;4933860;29;20548;-94
2021/09/28 06:46:16;;;;;;;12.70;3.65;;;9.80;99.90;;;;;;4934265;29;20035;-94
2021/09/28 06:48:42;;;;;;;17.77;3.60;;;9.80;99.90;;;;;;4936043;29;20039;-94
2021/09/28 06:51:07;;;;;;;11.50;3.83;;;9.80;99.90;;;;;;4937646;29;20031;-94
2021/09/28 06:53:33;;;;;;;8.65;2.95;;;9.90;99.90;;;;;;4934574;29;20070;-94
2021/09/28 06:55:59;;;;;;;14.43;3.42;;;9.80;99.90;;;;;;4935073;29;20032;-94
2021/09/28 06:58:24;;;;;;;13.25;3.65;;;9.90;99.90;;;;;;4926671;29;20020;-94
2021/09/28 07:00:51;;;;;;;16.77;3.67;;;9.90;99.90;;;;;;4937327;29;20033;-94
2021/09/28 07:03:17;;;;;;;11.80;3.90;;;9.80;99.90;;;;;;4927735;29;20062;-94
2021/09/28 07:05:42;;;;;;;16.17;3.28;;;9.90;99.90;;;;;;4932176;29;20032;-94
2021/09/28 07:08:08;;;;;;;16.42;4.03;;;9.90;99.90;;;;;;4953578;29;20031;-94
2021/09/28 07:10:34;;;;;;;12.07;3.67;;;9.90;99.90;;;;;;4940240;29;20062;-94
2021/09/28 07:13:00;;;;;;;13.90;3.67;;;9.90;99.90;;;;;;4939857;29;20551;-94
2021/09/28 07:15:25;;;;;;;14.25;3.58;;;9.90;99.90;;;;;;4939928;29;20537;-95
2021/09/28 07:17:53;;;;;;;17.13;3.78;;;10.00;99.90;;;;;;4939845;29;20023;-94
2021/09/28 07:20:20;;;;;;;18.25;3.40;;;10.00;99.90;;;;;;4937544;29;20115;-93
2021/09/28 07:22:46;;;;;;;13.73;3.65;;;10.00;99.90;;;;;;4937119;29;20028;-94
2021/09/28 07:25:11;;;;;;;12.70;3.72;;;10.10;99.90;;;;;;4943813;29;20063;-94
2021/09/28 07:27:37;;;;;;;13.88;3.85;;;10.10;99.90;;;;;;4953232;28;20082;-93
2021/09/28 07:30:04;;;;;;;17.77;3.58;;;10.20;99.90;;;;;;4947715;29;20035;-95
2021/09/28 07:32:30;;;;;;;12.88;3.30;;;10.30;99.90;;;;;;4936366;29;20034;-95
2021/09/28 07:34:56;;;;;;;18.20;3.60;;;10.40;99.90;;;;;;4928397;29;20466;-95
2021/09/28 07:37:27;;;;;;;12.82;2.88;;;10.50;99.90;;;;;;4926655;29;20031;-96
2021/09/28 07:39:56;;;;;;;;;;;10.50;99.90;;;;;;4930758;29;20046;-95
2021/09/28 07:42:22;;;;;;;11.80;2.95;;;10.60;99.90;;;;;;4931914;29;19914;-95
2021/09/28 07:44:48;;;;;;;10.27;2.70;;;10.70;99.90;;;;;;4931781;29;20035;-94
2021/09/28 07:47:14;;;;;;;13.55;2.50;;;10.80;99.90;;;;;;4930594;29;20039;-96
2021/09/28 07:52:05;;;;;;;14.68;2.50;;;11.00;99.90;;;;;;4932376;23;20046;-95
2021/09/28 07:54:30;;;;;;;17.73;2.83;;;11.20;99.90;;;;;;4946431;29;20073;-95
2021/09/28 07:56:58;;;;;;;25.20;3.42;;;11.30;99.90;;;;;;4945530;28;20030;-93
2021/09/28 07:59:24;;;;;;;19.08;2.60;;;11.30;99.90;;;;;;4957232;28;20027;-94
2021/09/28 08:01:50;;;;;;;12.93;2.72;;;11.40;99.90;;;;;;4946476;28;20093;-94
2021/09/28 08:04:19;;;;;;;11.55;2.35;;;11.50;99.90;;;;;;4945611;28;20027;-94
2021/09/28 08:06:45;;;;;;;17.35;2.42;;;11.50;99.90;;;;;;4947300;28;20046;-94
2021/09/28 08:09:11;;;;;;;14.18;2.95;;;11.50;99.90;;;;;;4947707;28;20113;-94
2021/09/28 08:11:36;;;;;;;13.32;2.72;;;11.60;99.90;;;;;;4948249;28;20596;-94
2021/09/28 08:16:31;;;;;;;16.73;2.53;;;11.60;99.90;;;;;;4937771;23;20043;-95
2021/09/28 08:18:57;;;;;;;11.75;3.15;;;11.60;99.90;;;;;;4974126;28;20487;-93
2021/09/28 08:21:22;;;;;;;14.90;2.70;;;11.60;99.90;;;;;;4977601;28;20041;-93
2021/09/28 08:23:48;;;;;;;14.55;2.92;;;11.60;99.90;;;;;;4977674;28;20450;-93
2021/09/28 08:29:09;;;;;;;6.30;1.90;;;11.70;99.90;;;;;;4969666;28;20042;-94
2021/09/28 08:31:38;;;;;;;16.20;2.47;;;11.80;99.90;;;;;;4951863;28;20042;-94
2021/09/28 08:34:05;;;;;;;18.52;2.88;;;11.80;99.90;;;;;;4949486;28;20026;-95
2021/09/28 08:36:31;;;;;;;17.73;2.55;;;11.90;99.90;;;;;;4946245;28;20030;-94
2021/09/28 08:38:57;;;;;;;11.52;2.70;;;11.90;99.90;;;;;;4947048;28;20393;-94
2021/09/28 08:41:23;;;;;;;16.15;2.50;;;11.90;99.90;;;;;;4944581;28;20038;-94
2021/09/28 08:43:50;;;;;;;15.07;3.20;;;11.90;99.90;;;;;;4946231;28;20023;-95
2021/09/28 08:46:17;;;;;;;10.80;2.58;;;11.90;99.90;;;;;;4951701;28;20121;-95
2021/09/28 08:48:44;;;;;;;12.90;2.55;;;12.00;99.90;;;;;;4957522;28;20071;-93
2021/09/28 08:51:10;;;;;;;21.48;2.78;;;12.10;99.90;;;;;;4958754;28;20031;-93
2021/09/28 08:53:37;;;;;;;5.57;1.70;;;12.20;99.90;;;;;;4956364;29;20026;-94
2021/09/28 08:56:09;;;;;;;11.15;2.03;;;12.40;99.90;;;;;;4956220;29;20109;-94
2021/09/28 08:59:03;;;;;;;14.77;2.25;;;12.50;99.90;;;;;;4951502;29;20131;-94
2021/09/28 09:01:30;;;;;;;12.50;2.30;;;12.60;99.90;;;;;;4942777;29;20086;-93
2021/09/28 09:04:11;;;;;;;10.50;2.17;;;12.70;99.90;;;;;;4951740;28;20081;-94
2021/09/28 09:06:38;;;;;;;11.93;2.05;;;12.70;99.90;;;;;;4952106;28;20035;-94
2021/09/28 09:09:03;;;;;;;11.25;2.88;;;12.80;99.90;;;;;;4951339;28;20026;-93
2021/09/28 09:11:41;;;;;;;19.20;2.40;;;12.70;99.90;;;;;;4951623;28;20042;-94
2021/09/28 09:14:23;;;;;;;13.27;2.08;;;12.70;99.90;;;;;;4975134;28;20093;-94
2021/09/28 09:16:52;;;;;;;8.93;1.55;;;12.70;99.90;;;;;;4951530;28;20035;-94
2021/09/28 09:19:24;;;;;;;14.18;2.00;;;12.80;99.90;;;;;;4949780;28;20065;-95
2021/09/28 09:21:55;;;;;;;17.52;2.15;;;12.80;99.90;;;;;;4955665;28;20026;-94
2021/09/28 09:24:48;;;;;;;12.38;2.10;;;12.80;99.90;;;;;;4945262;28;20027;-94
2021/09/28 09:27:27;;;;;;;11.52;1.98;;;12.90;99.90;;;;;;4975360;28;20042;-94
2021/09/28 09:30:11;;;;;;;11.13;2.38;;;13.00;99.90;;;;;;4975797;28;20041;-94
2021/09/28 09:32:55;;;;;;;12.38;2.60;;;13.10;99.90;;;;;;4971309;28;20027;-94
2021/09/28 09:35:41;;;;;;;10.07;2.90;;;13.10;99.90;;;;;;4958310;28;20023;-93
2021/09/28 09:38:09;;;;;;;11.82;2.28;;;13.10;99.90;;;;;;4953231;28;20460;-92
2021/09/28 09:40:41;;;;;;;12.38;2.30;;;13.10;99.90;;;;;;4949073;28;20150;-92
2021/09/28 09:43:09;;;;;;;9.73;1.88;;;13.10;99.90;;;;;;4951938;28;20106;-91
2021/09/28 09:45:35;;;;;;;12.63;2.00;;;13.20;99.90;;;;;;4949342;28;20091;-93
2021/09/28 09:48:20;;;;;;;19.30;3.28;;;13.30;99.90;;;;;;4954597;28;20038;-92
2021/09/28 09:50:54;;;;;;;15.38;2.40;;;13.50;99.90;;;;;;4947133;28;20063;-93
2021/09/28 09:53:22;;;;;;;14.88;2.75;;;13.80;99.90;;;;;;4948145;28;20019;-93
2021/09/28 09:55:48;;;;;;;11.13;1.83;;;14.00;99.90;;;;;;4951201;28;20391;-93
2021/09/28 09:58:14;;;;;;;12.85;2.20;;;14.10;99.90;;;;;;4952569;28;20110;-94
2021/09/28 10:00:40;;;;;;;12.13;2.08;;;14.20;99.90;;;;;;4960520;28;20030;-93
2021/09/28 10:03:08;;;;;;;14.07;2.17;;;14.30;99.90;;;;;;4960076;28;20526;-93
2021/09/28 10:05:34;;;;;;;10.13;1.70;;;14.40;99.90;;;;;;4949557;29;20075;-92
2021/09/28 10:08:04;;;;;;;17.52;2.30;;;14.50;99.90;;;;;;4942978;29;20456;-93
2021/09/28 10:10:35;;;;;;;9.30;1.38;;;14.60;99.90;;;;;;4944498;29;20042;-93
2021/09/28 10:13:01;;;;;;;;;;;14.70;99.90;;;;;;4946736;29;20090;-93
2021/09/28 10:15:26;;;;;;;7.47;1.23;;;14.80;99.90;;;;;;4947761;29;19906;-94
2021/09/28 10:17:52;;;;;;;9.82;2.03;;;14.80;99.90;;;;;;4947230;29;20087;-93
2021/09/28 10:20:21;;;;;;;12.90;1.75;;;14.80;99.90;;;;;;4944387;29;20046;-94
2021/09/28 10:22:53;;;;;;;9.57;2.03;;;14.80;99.90;;;;;;4942646;29;20039;-93
2021/09/28 10:25:31;;;;;;;11.93;2.28;;;14.70;99.90;;;;;;4943645;29;20032;-96
2021/09/28 10:28:16;;;;;;;10.63;1.45;;;14.60;99.90;;;;;;4942737;29;20038;-93
2021/09/28 10:30:44;;;;;;;11.00;1.52;;;14.60;99.90;;;;;;4943745;29;20059;-94
2021/09/28 10:33:22;;;;;;;11.48;1.92;;;14.50;99.90;;;;;;4943296;29;20039;-94
2021/09/28 10:36:11;;;;;;;9.25;1.58;;;14.40;99.90;;;;;;4943013;29;20027;-93
2021/09/28 10:39:00;;;;;;;9.65;1.55;;;14.40;99.90;;;;;;4943305;29;20078;-94
2021/09/28 10:41:28;;;;;;;12.73;1.73;;;14.40;99.90;;;;;;4945308;29;20102;-92
2021/09/28 10:44:14;;;;;;;9.52;1.05;;;14.40;99.90;;;;;;4948488;29;20032;-92
2021/09/28 10:46:41;;;;;;;7.35;1.10;;;14.30;99.90;;;;;;4953206;28;20024;-93
2021/09/28 10:49:27;;;;;;;9.63;1.83;;;14.30;99.90;;;;;;4956835;29;20083;-93
2021/09/28 10:52:21;;;;;;;9.07;2.55;;;14.30;99.90;;;;;;4941747;29;20034;-93
2021/09/28 10:55:05;;;;;;;14.90;1.48;;;14.30;99.90;;;;;;4941948;29;20038;-94
2021/09/28 11:00:40;;;;;;;9.85;1.67;;;14.40;99.90;;;;;;4958293;29;20042;-92
2021/09/28 11:03:08;;;;;;;9.52;1.23;;;14.50;99.90;;;;;;4943369;29;20027;-92
2021/09/28 11:05:56;;;;;;;5.85;1.67;;;14.50;99.90;;;;;;4943432;29;20057;-93
2021/09/28 11:08:22;;;;;;;6.18;1.30;;;14.60;99.90;;;;;;4942462;29;20023;-91
2021/09/28 11:10:59;;;;;;;7.40;1.65;;;14.60;99.90;;;;;;4943427;29;20540;-93
2021/09/28 11:13:48;;;;;;;5.68;1.50;;;14.60;99.90;;;;;;4943032;29;20027;-92
2021/09/28 11:16:16;;;;;;;8.52;1.80;;;14.60;99.90;;;;;;4943011;28;20027;-92
2021/09/28 11:18:58;;;;;;;8.05;1.45;;;14.60;99.90;;;;;;4942678;29;20035;-93
2021/09/28 11:21:25;;;;;;;12.50;2.08;;;14.60;99.90;;;;;;4942440;29;20315;-94
2021/09/28 11:23:53;;;;;;;7.97;1.45;;;14.70;99.90;;;;;;4942283;29;20023;-92
2021/09/28 11:26:19;;;;;;;7.03;1.48;;;14.60;99.90;;;;;;4943232;29;20042;-93
2021/09/28 11:28:50;;;;;;;9.27;1.50;;;14.60;99.90;;;;;;4941896;29;20031;-93
2021/09/28 11:31:16;;;;;;;14.52;2.60;;;14.60;99.90;;;;;;4941711;28;20035;-91
2021/09/28 11:33:45;;;;;;;8.95;1.27;;;14.60;99.90;;;;;;4941952;29;20035;-93
2021/09/28 11:36:13;;;;;;;8.93;1.30;;;14.60;99.90;;;;;;4942644;29;20552;-92
2021/09/28 11:38:42;;;;;;;10.15;1.33;;;14.50;99.90;;;;;;4942797;29;20031;-94
2021/09/28 11:41:20;;;;;;;6.15;1.40;;;14.50;99.90;;;;;;4942474;29;20043;-94
2021/09/28 11:43:58;;;;;;;11.57;1.60;;;14.50;99.90;;;;;;4942761;29;20445;-93
2021/09/28 11:46:33;;;;;;;10.45;1.35;;;14.40;99.90;;;;;;4942479;29;20042;-93
2021/09/28 11:49:07;;;;;;;7.70;1.08;;;14.40;99.90;;;;;;4942938;29;20051;-93
2021/09/28 11:51:39;;;;;;;9.63;1.08;;;14.30;99.90;;;;;;4942978;29;20035;-92
2021/09/28 11:54:15;;;;;;;10.45;1.23;;;14.30;99.90;;;;;;4942218;29;20473;-93
2021/09/28 11:56:43;;;;;;;6.18;1.08;;;14.20;99.90;;;;;;4942509;29;20138;-92
2021/09/28 11:59:16;;;;;;;5.38;1.40;;;14.20;99.90;;;;;;4942001;29;20027;-93
2021/09/28 12:01:44;;;;;;;8.45;1.70;;;14.10;99.90;;;;;;4942650;29;20019;-94
2021/09/28 12:07:08;;;;;;;12.35;2.47;;;13.90;99.90;;;;;;4963149;29;20043;-92
2021/09/28 12:09:34;;;;;;;10.32;1.40;;;13.80;99.90;;;;;;4942619;29;20023;-92
2021/09/28 12:12:04;;;;;;;6.47;1.20;;;13.80;99.90;;;;;;4941226;29;20054;-92
2021/09/28 12:14:30;;;;;;;7.00;1.60;;;13.80;99.90;;;;;;4941775;29;20031;-92
2021/09/28 12:17:10;;;;;;;5.18;1.77;;;13.70;99.90;;;;;;4939251;29;20493;-93
2021/09/28 12:19:37;;;;;;;7.07;1.30;;;13.70;99.90;;;;;;4939750;29;20027;-94
2021/09/28 12:22:03;;;;;;;9.98;1.10;;;13.70;99.90;;;;;;4941022;29;20031;-94
2021/09/28 12:24:45;;;;;;;13.32;2.50;;;13.70;99.90;;;;;;4941937;29;20042;-92
2021/09/28 12:27:12;;;;;;;9.75;1.30;;;13.80;99.90;;;;;;4941626;29;20087;-93
2021/09/28 12:29:44;;;;;;;7.55;1.58;;;13.80;99.90;;;;;;4939381;29;20027;-95
2021/09/28 12:32:24;;;;;;;9.15;1.40;;;13.80;99.90;;;;;;4940209;29;20038;-93
2021/09/28 12:34:56;;;;;;;15.33;1.80;;;13.90;99.90;;;;;;4954682;29;20031;-93
2021/09/28 12:37:27;;;;;;;10.38;1.45;;;13.90;99.90;;;;;;4959334;29;20310;-94
2021/09/28 12:40:07;;;;;;;8.68;1.55;;;13.90;99.90;;;;;;4953278;28;20175;-93
2021/09/28 12:42:37;;;;;;;14.80;1.85;;;13.90;99.90;;;;;;4941323;29;20039;-93
2021/09/28 12:45:12;;;;;;;7.65;1.45;;;13.90;99.90;;;;;;4941271;29;20117;-93
2021/09/28 12:47:54;;;;;;;7.50;1.30;;;13.90;99.90;;;;;;4940052;29;20039;-93
2021/09/28 12:50:33;;;;;;;7.10;1.55;;;13.90;99.90;;;;;;4940963;29;20031;-95
2021/09/28 12:53:08;;;;;;;9.63;1.55;;;13.90;99.90;;;;;;4938755;29;20043;-92
2021/09/28 12:55:37;;;;;;;12.85;1.45;;;14.00;99.90;;;;;;4939605;29;20035;-93
2021/09/28 12:58:11;;;;;;;11.43;1.85;;;14.00;99.90;;;;;;4940006;29;20031;-94
2021/09/28 13:00:41;;;;;;;10.98;2.97;;;14.00;99.90;;;;;;4942394;29;20054;-93
2021/09/28 13:03:23;;;;;;;11.82;1.60;;;14.00;99.90;;;;;;4941425;29;20039;-94
2021/09/28 13:05:57;;;;;;;5.03;1.13;;;14.00;99.90;;;;;;4939479;29;20381;-93
2021/09/28 13:08:25;;;;;;;9.57;1.52;;;14.00;99.90;;;;;;4940802;29;20035;-93
2021/09/28 13:10:53;;;;;;;8.48;1.27;;;14.00;99.90;;;;;;4940952;29;20031;-94